Minerva Concert — SVWC — position and weather

sailwx.info

Track history (hours):
 
Tides and Currents Weather Stations Pressure Air Temp Water Temp Dewpoint Dewpoint Depression Visibility Wind Speed Wind Dir Waves Ship Positions

Minerva Concert

Last reported at 2014-Dec-11 16:21 UTC. Time now 2014-Dec-20 20:07 UTC.
Position N 57°50' W 002°06'.
Warning: this ship's position is 9 days out of date.

Length 241 m; draft 8 m.

Type: Tanker. MMSI: 240110000.

Date/timePositionNaut miles runAvg speedWind from/ knotsBaromVisibWave heightAir tempDewpointWater temp
2014-Dec-11 16:21N 57°50' W 002°06'6 7.4
2014-Dec-11 15:33N 57°50' W 001°55'7 6.6
2014-Dec-11 14:33N 57°49' W 001°43'5 4.8
2014-Dec-11 13:31N 57°48' W 001°34'6 5.7
2014-Dec-11 12:33N 57°45' W 001°25'6 5.5
2014-Dec-11 11:34N 57°41' W 001°18'9 8.8
2014-Dec-11 10:34N 57°33' W 001°24'1010.2
2014-Dec-11 09:33N 57°23' W 001°31'1110.6
2014-Dec-11 08:33N 57°13' W 001°36'147 6.1
2014-Dec-10 08:23N 54°56' W 000°02'6 6.9
2014-Dec-10 07:31N 54°50' E 000°00'6 6.3
2014-Dec-10 06:33N 54°45' E 000°03'6 5.8
2014-Dec-10 05:33N 54°39' E 000°06'6 6.4
2014-Dec-10 04:34N 54°33' E 000°08'7 7.0
2014-Dec-10 03:33N 54°26' E 000°11'8 7.9
2014-Dec-10 02:33N 54°18' E 000°15'8 8.2
2014-Dec-10 01:33N 54°10' E 000°19'6 6.2
2014-Dec-10 00:33N 54°04' E 000°20'7 7.0
2014-Dec-09 23:33N 53°57' E 000°21'8 7.7
2014-Dec-09 22:33N 53°49' E 000°21'9 8.5
2014-Dec-09 21:34N 53°41' E 000°21'9 8.7
2014-Dec-09 20:33N 53°33' E 000°15'1110.7
2014-Dec-09 19:33N 53°36' W 000°03'5 4.1
2014-Dec-09 18:23N 53°38' W 000°10'0 0.0
2014-Dec-09 17:32N 53°38' W 000°10'0 0.0
2014-Dec-09 16:32N 53°38' W 000°10'0 0.0
2014-Dec-09 15:32N 53°38' W 000°10'0 0.0
2014-Dec-09 14:23N 53°38' W 000°10'0 0.0
2014-Dec-09 13:32N 53°38' W 000°10'0 0.0
2014-Dec-09 12:32N 53°38' W 000°10'0 0.0
2014-Dec-09 11:29N 53°38' W 000°10'0 0.0
2014-Dec-09 10:32N 53°38' W 000°10'0 0.0
2014-Dec-09 09:29N 53°38' W 000°10'0 0.0
2014-Dec-09 08:29N 53°38' W 000°10'0 0.0
2014-Dec-09 07:32N 53°38' W 000°10'0 0.0
2014-Dec-09 06:32N 53°38' W 000°10'0 0.0
2014-Dec-09 05:29N 53°38' W 000°10'0 0.0
2014-Dec-09 04:32N 53°38' W 000°10'0 0.0
2014-Dec-09 03:32N 53°38' W 000°10'0 0.0
2014-Dec-09 02:26N 53°38' W 000°10'0 0.0
2014-Dec-09 01:32N 53°38' W 000°10'0 0.0
2014-Dec-09 00:32N 53°38' W 000°10'0 0.0
2014-Dec-08 23:32N 53°38' W 000°10'0 0.0
2014-Dec-08 22:23N 53°38' W 000°10'0 0.0
2014-Dec-08 21:26N 53°38' W 000°10'0 0.0
2014-Dec-08 20:29N 53°38' W 000°10'0 0.0
2014-Dec-08 19:26N 53°38' W 000°10'0 0.0
2014-Dec-08 18:26N 53°38' W 000°10'0 0.0
2014-Dec-08 17:32N 53°38' W 000°10'0 0.0
2014-Dec-08 16:32N 53°38' W 000°10'0 0.0
2014-Dec-08 15:32N 53°38' W 000°10'0 0.0
2014-Dec-08 14:29N 53°38' W 000°10'0 0.0
2014-Dec-08 13:32N 53°38' W 000°10'0 0.0
2014-Dec-08 12:29N 53°38' W 000°10'0 0.0
2014-Dec-08 11:29N 53°38' W 000°10'0 0.0
2014-Dec-08 10:32N 53°38' W 000°10'0 0.0
2014-Dec-08 09:32N 53°38' W 000°10'0 0.0
2014-Dec-08 08:32N 53°38' W 000°10'0 0.0
2014-Dec-08 07:34N 53°38' W 000°10'2 2.1
2014-Dec-08 06:33N 53°37' W 000°07'6 5.9
2014-Dec-08 05:33N 53°36' E 000°03'8 8.0
2014-Dec-08 04:34N 53°34' E 000°16'9 9.2
2014-Dec-08 03:33N 53°43' E 000°23'2 2.2
2014-Dec-08 02:31N 53°45' E 000°24'0 0.2
2014-Dec-08 01:31N 53°45' E 000°24'0 0.2
2014-Dec-08 00:31N 53°45' E 000°23'0 0.0
2014-Dec-07 23:22N 53°45' E 000°23'0 0.0
2014-Dec-07 22:28N 53°45' E 000°23'0 0.0
2014-Dec-07 21:22N 53°45' E 000°24'0 0.2
2014-Dec-07 20:31N 53°45' E 000°24'0 0.1
2014-Dec-07 19:31N 53°45' E 000°24'0 0.1
2014-Dec-07 18:31N 53°45' E 000°24'0 0.1
2014-Dec-07 17:31N 53°45' E 000°24'0 0.0
2014-Dec-07 16:31N 53°45' E 000°24'0 0.0
2014-Dec-07 15:31N 53°45' E 000°24'0 0.0
2014-Dec-07 14:31N 53°45' E 000°24'0 0.1
2014-Dec-07 13:31N 53°45' E 000°24'0 0.2
2014-Dec-07 12:31N 53°45' E 000°24'0 0.2
2014-Dec-07 11:31N 53°45' E 000°24'0 0.0
2014-Dec-07 10:25N 53°45' E 000°23'0 0.0
2014-Dec-07 09:28N 53°45' E 000°24'0 0.1
2014-Dec-07 08:25N 53°45' E 000°24'0 0.0
2014-Dec-07 07:31N 53°45' E 000°24'0 0.2
2014-Dec-07 06:28N 53°45' E 000°24'0 0.1
2014-Dec-07 05:25N 53°45' E 000°24'0 0.0
2014-Dec-07 04:31N 53°45' E 000°24'0 0.0
2014-Dec-07 03:31N 53°45' E 000°24'0 0.0
2014-Dec-07 02:31N 53°45' E 000°24'0 0.3
2014-Dec-07 01:28N 53°45' E 000°24'0 0.2
2014-Dec-07 00:31N 53°45' E 000°24'0 0.1
2014-Dec-06 23:31N 53°45' E 000°23'0 0.0
2014-Dec-06 22:28N 53°45' E 000°23'0 0.0
2014-Dec-06 21:28N 53°45' E 000°23'0 0.0
2014-Dec-06 20:28N 53°45' E 000°24'0 0.1
2014-Dec-06 19:31N 53°45' E 000°24'0 0.1
2014-Dec-06 18:31N 53°45' E 000°24'0 0.2
2014-Dec-06 17:31N 53°45' E 000°24'0 0.0
2014-Dec-06 16:31N 53°45' E 000°24'0 0.0
2014-Dec-06 15:31N 53°45' E 000°24'1 0.6
2014-Dec-06 14:33N 53°45' E 000°24'1212.3
2014-Dec-06 13:34N 53°57' E 000°18'1414.0
2014-Dec-06 12:33N 54°11' E 000°12'1313.4
2014-Dec-06 11:34N 54°22' E 000°01'1212.1
2014-Dec-06 10:33N 54°34' W 000°07'1110.6
2014-Dec-06 09:33N 54°41' W 000°19'1211.8
2014-Dec-06 08:33N 54°41' W 000°40'1111.1
2014-Dec-06 07:32N 54°42' W 000°59'7 7.3
2014-Dec-06 06:32N 54°38' W 001°10'0 0.0
2014-Dec-05 16:25N 54°38' W 001°10'0 0.0
2014-Dec-05 15:22N 54°38' W 001°10'0 0.0
2014-Dec-05 13:25N 54°38' W 001°10'0 0.0
2014-Dec-05 12:25N 54°38' W 001°10'0 0.0
2014-Dec-05 11:13N 54°38' W 001°10'0 0.0
2014-Dec-05 09:31N 54°38' W 001°10'0 0.0
2014-Dec-05 08:31N 54°38' W 001°10'1 1.0
2014-Dec-05 07:31N 54°38' W 001°09'5 5.0
2014-Dec-05 06:33N 54°43' W 001°05'3 2.6
2014-Dec-05 05:32N 54°42' W 001°00'0 0.1
2014-Dec-05 04:32N 54°42' W 001°00'0 0.0
2014-Dec-05 03:26N 54°42' W 001°00'0 0.0
2014-Dec-05 02:32N 54°42' W 001°00'0 0.0
2014-Dec-05 01:32N 54°42' W 001°00'0 0.0
2014-Dec-05 00:32N 54°42' W 001°00'0 0.1
2014-Dec-04 23:32N 54°42' W 001°01'0 0.1
2014-Dec-04 22:32N 54°42' W 001°01'0 0.0
2014-Dec-04 21:32N 54°42' W 001°01'0 0.1
2014-Dec-04 20:32N 54°42' W 001°01'0 0.0
2014-Dec-04 19:32N 54°42' W 001°01'0 0.0
2014-Dec-04 18:17N 54°42' W 001°01'0 0.0
2014-Dec-04 17:32N 54°42' W 001°01'0 0.0
2014-Dec-04 16:32N 54°42' W 001°01'0 0.1
2014-Dec-04 15:08N 54°42' W 001°01'0 0.0
2014-Dec-04 14:20N 54°42' W 001°01'0 0.0
2014-Dec-04 13:34N 54°42' W 001°01'0 0.1
2014-Dec-04 12:32N 54°42' W 001°01'5 4.8
2014-Dec-04 11:31N 54°42' W 000°52'1310.2
2014-Dec-04 10:16N 54°44' W 000°30'710.6
2014-Dec-04 09:34N 54°45' W 000°17'1110.6
2014-Dec-04 08:34N 54°46' E 000°01'1110.6
2014-Dec-04 07:33N 54°48' E 000°19'129 9.0
2014-Dec-03 17:14N 54°03' E 003°46'19 7.2
2014-Dec-03 14:33N 53°50' E 003°22'9 8.8
2014-Dec-03 13:33N 53°43' E 003°12'9 8.7
2014-Dec-03 12:34N 53°35' E 003°05'18 8.7
2014-Dec-03 10:28N 53°19' E 002°52'50 7.3
2014-Dec-03 03:33N 52°29' E 002°41'39 9.5
2014-Dec-02 23:29N 51°50' E 002°38'9 8.8
2014-Dec-02 22:26N 51°42' E 002°32'8 8.8
2014-Dec-02 21:33N 51°36' E 002°23'8 8.3
2014-Dec-02 20:34N 51°30' E 002°15'8 7.7
2014-Dec-02 19:33N 51°24' E 002°07'8 8.4
2014-Dec-02 18:34N 51°21' E 002°19'1210.4
2014-Dec-02 17:24N 51°23' E 002°38'1 0.6
2014-Dec-02 15:04N 51°24' E 002°38'0 0.0
2014-Dec-02 13:28N 51°24' E 002°38'0 0.0
2014-Dec-02 12:07N 51°24' E 002°38'0 0.2
2014-Dec-02 11:22N 51°24' E 002°38'0 0.1
2014-Dec-02 10:19N 51°24' E 002°38'0 0.0
2014-Dec-02 09:22N 51°24' E 002°38'0 0.1
2014-Dec-02 08:25N 51°24' E 002°38'0 0.1
2014-Dec-02 07:28N 51°24' E 002°38'0 0.0
2014-Dec-02 06:28N 51°24' E 002°38'0 0.0
2014-Dec-02 05:04N 51°24' E 002°38'0 0.0
2014-Dec-02 04:13N 51°24' E 002°38'0 0.0
2014-Dec-02 03:10N 51°24' E 002°38'0 0.0
2014-Dec-02 02:04N 51°24' E 002°38'0 0.0
2014-Dec-02 01:25N 51°24' E 002°38'0 0.0
2014-Dec-02 00:25N 51°24' E 002°38'0 0.2
2014-Dec-01 23:28N 51°24' E 002°38'0 0.1
2014-Dec-01 22:31N 51°24' E 002°38'0 0.1
2014-Dec-01 21:28N 51°24' E 002°38'0 0.0
2014-Dec-01 20:25N 51°24' E 002°38'0 0.0
2014-Dec-01 19:22N 51°24' E 002°38'0 0.2
2014-Dec-01 18:31N 51°24' E 002°38'0 0.1
2014-Dec-01 17:16N 51°24' E 002°38'  
Track history (hours):
 
Tides and Currents Weather Stations Pressure Air Temp Water Temp Dewpoint Dewpoint Depression Visibility Wind Speed Wind Dir Waves Ship Positions

Minerva Concert

Last reported at 2014-Dec-11 16:21 UTC. Time now 2014-Dec-20 20:07 UTC.
Position N 57°50' W 002°06'.
Warning: this ship's position is 9 days out of date.

Length 241 m; draft 8 m.

Type: Tanker. MMSI: 240110000.

Date/timePositionNaut miles runAvg speedWind from/ knotsBaromVisibWave heightAir tempDewpointWater temp
2014-Dec-11 16:21N 57°50' W 002°06'6 7.4
2014-Dec-11 15:33N 57°50' W 001°55'7 6.6
2014-Dec-11 14:33N 57°49' W 001°43'5 4.8
2014-Dec-11 13:31N 57°48' W 001°34'6 5.7
2014-Dec-11 12:33N 57°45' W 001°25'6 5.5
2014-Dec-11 11:34N 57°41' W 001°18'9 8.8
2014-Dec-11 10:34N 57°33' W 001°24'1010.2
2014-Dec-11 09:33N 57°23' W 001°31'1110.6
2014-Dec-11 08:33N 57°13' W 001°36'147 6.1
2014-Dec-10 08:23N 54°56' W 000°02'6 6.9
2014-Dec-10 07:31N 54°50' E 000°00'6 6.3
2014-Dec-10 06:33N 54°45' E 000°03'6 5.8
2014-Dec-10 05:33N 54°39' E 000°06'6 6.4
2014-Dec-10 04:34N 54°33' E 000°08'7 7.0
2014-Dec-10 03:33N 54°26' E 000°11'8 7.9
2014-Dec-10 02:33N 54°18' E 000°15'8 8.2
2014-Dec-10 01:33N 54°10' E 000°19'6 6.2
2014-Dec-10 00:33N 54°04' E 000°20'7 7.0
2014-Dec-09 23:33N 53°57' E 000°21'8 7.7
2014-Dec-09 22:33N 53°49' E 000°21'9 8.5
2014-Dec-09 21:34N 53°41' E 000°21'9 8.7
2014-Dec-09 20:33N 53°33' E 000°15'1110.7
2014-Dec-09 19:33N 53°36' W 000°03'5 4.1
2014-Dec-09 18:23N 53°38' W 000°10'0 0.0
2014-Dec-09 17:32N 53°38' W 000°10'0 0.0
2014-Dec-09 16:32N 53°38' W 000°10'0 0.0
2014-Dec-09 15:32N 53°38' W 000°10'0 0.0
2014-Dec-09 14:23N 53°38' W 000°10'0 0.0
2014-Dec-09 13:32N 53°38' W 000°10'0 0.0
2014-Dec-09 12:32N 53°38' W 000°10'0 0.0
2014-Dec-09 11:29N 53°38' W 000°10'0 0.0
2014-Dec-09 10:32N 53°38' W 000°10'0 0.0
2014-Dec-09 09:29N 53°38' W 000°10'0 0.0
2014-Dec-09 08:29N 53°38' W 000°10'0 0.0
2014-Dec-09 07:32N 53°38' W 000°10'0 0.0
2014-Dec-09 06:32N 53°38' W 000°10'0 0.0
2014-Dec-09 05:29N 53°38' W 000°10'0 0.0
2014-Dec-09 04:32N 53°38' W 000°10'0 0.0
2014-Dec-09 03:32N 53°38' W 000°10'0 0.0
2014-Dec-09 02:26N 53°38' W 000°10'0 0.0
2014-Dec-09 01:32N 53°38' W 000°10'0 0.0
2014-Dec-09 00:32N 53°38' W 000°10'0 0.0
2014-Dec-08 23:32N 53°38' W 000°10'0 0.0
2014-Dec-08 22:23N 53°38' W 000°10'0 0.0
2014-Dec-08 21:26N 53°38' W 000°10'0 0.0
2014-Dec-08 20:29N 53°38' W 000°10'0 0.0
2014-Dec-08 19:26N 53°38' W 000°10'0 0.0
2014-Dec-08 18:26N 53°38' W 000°10'0 0.0
2014-Dec-08 17:32N 53°38' W 000°10'0 0.0
2014-Dec-08 16:32N 53°38' W 000°10'0 0.0
2014-Dec-08 15:32N 53°38' W 000°10'0 0.0
2014-Dec-08 14:29N 53°38' W 000°10'0 0.0
2014-Dec-08 13:32N 53°38' W 000°10'0 0.0
2014-Dec-08 12:29N 53°38' W 000°10'0 0.0
2014-Dec-08 11:29N 53°38' W 000°10'0 0.0
2014-Dec-08 10:32N 53°38' W 000°10'0 0.0
2014-Dec-08 09:32N 53°38' W 000°10'0 0.0
2014-Dec-08 08:32N 53°38' W 000°10'0 0.0
2014-Dec-08 07:34N 53°38' W 000°10'2 2.1
2014-Dec-08 06:33N 53°37' W 000°07'6 5.9
2014-Dec-08 05:33N 53°36' E 000°03'8 8.0
2014-Dec-08 04:34N 53°34' E 000°16'9 9.2
2014-Dec-08 03:33N 53°43' E 000°23'2 2.2
2014-Dec-08 02:31N 53°45' E 000°24'0 0.2
2014-Dec-08 01:31N 53°45' E 000°24'0 0.2
2014-Dec-08 00:31N 53°45' E 000°23'0 0.0
2014-Dec-07 23:22N 53°45' E 000°23'0 0.0
2014-Dec-07 22:28N 53°45' E 000°23'0 0.0
2014-Dec-07 21:22N 53°45' E 000°24'0 0.2
2014-Dec-07 20:31N 53°45' E 000°24'0 0.1
2014-Dec-07 19:31N 53°45' E 000°24'0 0.1
2014-Dec-07 18:31N 53°45' E 000°24'0 0.1
2014-Dec-07 17:31N 53°45' E 000°24'0 0.0
2014-Dec-07 16:31N 53°45' E 000°24'0 0.0
2014-Dec-07 15:31N 53°45' E 000°24'0 0.0
2014-Dec-07 14:31N 53°45' E 000°24'0 0.1
2014-Dec-07 13:31N 53°45' E 000°24'0 0.2
2014-Dec-07 12:31N 53°45' E 000°24'0 0.2
2014-Dec-07 11:31N 53°45' E 000°24'0 0.0
2014-Dec-07 10:25N 53°45' E 000°23'0 0.0
2014-Dec-07 09:28N 53°45' E 000°24'0 0.1
2014-Dec-07 08:25N 53°45' E 000°24'0 0.0
2014-Dec-07 07:31N 53°45' E 000°24'0 0.2
2014-Dec-07 06:28N 53°45' E 000°24'0 0.1
2014-Dec-07 05:25N 53°45' E 000°24'0 0.0
2014-Dec-07 04:31N 53°45' E 000°24'0 0.0
2014-Dec-07 03:31N 53°45' E 000°24'0 0.0
2014-Dec-07 02:31N 53°45' E 000°24'0 0.3
2014-Dec-07 01:28N 53°45' E 000°24'0 0.2
2014-Dec-07 00:31N 53°45' E 000°24'0 0.1
2014-Dec-06 23:31N 53°45' E 000°23'0 0.0
2014-Dec-06 22:28N 53°45' E 000°23'0 0.0
2014-Dec-06 21:28N 53°45' E 000°23'0 0.0
2014-Dec-06 20:28N 53°45' E 000°24'0 0.1
2014-Dec-06 19:31N 53°45' E 000°24'0 0.1
2014-Dec-06 18:31N 53°45' E 000°24'0 0.2
2014-Dec-06 17:31N 53°45' E 000°24'0 0.0
2014-Dec-06 16:31N 53°45' E 000°24'0 0.0
2014-Dec-06 15:31N 53°45' E 000°24'1 0.6
2014-Dec-06 14:33N 53°45' E 000°24'1212.3
2014-Dec-06 13:34N 53°57' E 000°18'1414.0
2014-Dec-06 12:33N 54°11' E 000°12'1313.4
2014-Dec-06 11:34N 54°22' E 000°01'1212.1
2014-Dec-06 10:33N 54°34' W 000°07'1110.6
2014-Dec-06 09:33N 54°41' W 000°19'1211.8
2014-Dec-06 08:33N 54°41' W 000°40'1111.1
2014-Dec-06 07:32N 54°42' W 000°59'7 7.3
2014-Dec-06 06:32N 54°38' W 001°10'0 0.0
2014-Dec-05 16:25N 54°38' W 001°10'0 0.0
2014-Dec-05 15:22N 54°38' W 001°10'0 0.0
2014-Dec-05 13:25N 54°38' W 001°10'0 0.0
2014-Dec-05 12:25N 54°38' W 001°10'0 0.0
2014-Dec-05 11:13N 54°38' W 001°10'0 0.0
2014-Dec-05 09:31N 54°38' W 001°10'0 0.0
2014-Dec-05 08:31N 54°38' W 001°10'1 1.0
2014-Dec-05 07:31N 54°38' W 001°09'5 5.0
2014-Dec-05 06:33N 54°43' W 001°05'3 2.6
2014-Dec-05 05:32N 54°42' W 001°00'0 0.1
2014-Dec-05 04:32N 54°42' W 001°00'0 0.0
2014-Dec-05 03:26N 54°42' W 001°00'0 0.0
2014-Dec-05 02:32N 54°42' W 001°00'0 0.0
2014-Dec-05 01:32N 54°42' W 001°00'0 0.0
2014-Dec-05 00:32N 54°42' W 001°00'0 0.1
2014-Dec-04 23:32N 54°42' W 001°01'0 0.1
2014-Dec-04 22:32N 54°42' W 001°01'0 0.0
2014-Dec-04 21:32N 54°42' W 001°01'0 0.1
2014-Dec-04 20:32N 54°42' W 001°01'0 0.0
2014-Dec-04 19:32N 54°42' W 001°01'0 0.0
2014-Dec-04 18:17N 54°42' W 001°01'0 0.0
2014-Dec-04 17:32N 54°42' W 001°01'0 0.0
2014-Dec-04 16:32N 54°42' W 001°01'0 0.1
2014-Dec-04 15:08N 54°42' W 001°01'0 0.0
2014-Dec-04 14:20N 54°42' W 001°01'0 0.0
2014-Dec-04 13:34N 54°42' W 001°01'0 0.1
2014-Dec-04 12:32N 54°42' W 001°01'5 4.8
2014-Dec-04 11:31N 54°42' W 000°52'1310.2
2014-Dec-04 10:16N 54°44' W 000°30'710.6
2014-Dec-04 09:34N 54°45' W 000°17'1110.6
2014-Dec-04 08:34N 54°46' E 000°01'1110.6
2014-Dec-04 07:33N 54°48' E 000°19'129 9.0
2014-Dec-03 17:14N 54°03' E 003°46'19 7.2
2014-Dec-03 14:33N 53°50' E 003°22'9 8.8
2014-Dec-03 13:33N 53°43' E 003°12'9 8.7
2014-Dec-03 12:34N 53°35' E 003°05'18 8.7
2014-Dec-03 10:28N 53°19' E 002°52'50 7.3
2014-Dec-03 03:33N 52°29' E 002°41'39 9.5
2014-Dec-02 23:29N 51°50' E 002°38'9 8.8
2014-Dec-02 22:26N 51°42' E 002°32'8 8.8
2014-Dec-02 21:33N 51°36' E 002°23'8 8.3
2014-Dec-02 20:34N 51°30' E 002°15'8 7.7
2014-Dec-02 19:33N 51°24' E 002°07'8 8.4
2014-Dec-02 18:34N 51°21' E 002°19'1210.4
2014-Dec-02 17:24N 51°23' E 002°38'1 0.6
2014-Dec-02 15:04N 51°24' E 002°38'0 0.0
2014-Dec-02 13:28N 51°24' E 002°38'0 0.0
2014-Dec-02 12:07N 51°24' E 002°38'0 0.2
2014-Dec-02 11:22N 51°24' E 002°38'0 0.1
2014-Dec-02 10:19N 51°24' E 002°38'0 0.0
2014-Dec-02 09:22N 51°24' E 002°38'0 0.1
2014-Dec-02 08:25N 51°24' E 002°38'0 0.1
2014-Dec-02 07:28N 51°24' E 002°38'0 0.0
2014-Dec-02 06:28N 51°24' E 002°38'0 0.0
2014-Dec-02 05:04N 51°24' E 002°38'0 0.0
2014-Dec-02 04:13N 51°24' E 002°38'0 0.0
2014-Dec-02 03:10N 51°24' E 002°38'0 0.0
2014-Dec-02 02:04N 51°24' E 002°38'0 0.0
2014-Dec-02 01:25N 51°24' E 002°38'0 0.0
2014-Dec-02 00:25N 51°24' E 002°38'0 0.2
2014-Dec-01 23:28N 51°24' E 002°38'0 0.1
2014-Dec-01 22:31N 51°24' E 002°38'0 0.1
2014-Dec-01 21:28N 51°24' E 002°38'0 0.0
2014-Dec-01 20:25N 51°24' E 002°38'0 0.0
2014-Dec-01 19:22N 51°24' E 002°38'0 0.2
2014-Dec-01 18:31N 51°24' E 002°38'0 0.1
2014-Dec-01 17:16N 51°24' E 002°38'  

Dump ship's entire track history